Air Navigation Services of Czech Republic
Airport: LKPR Updated:  03.10.2022 10:34:32  UTC
 METAR LKPR 03.10. 10:30 RRA
METAR LKPR 031030Z 29016KT 9999 SCT024 12/08 Q1023 NOSIG=
 TAF LKPR 03.10. 05:00 ...
TAF LKPR 030500Z 0306/0412 26012KT CAVOK      TEMPO 0306/0406 29014G24KT 9999 SCT040      PROB30 TEMPO 0306/0400 -SHRA BKN025=